createdAt,value
2018-03-27T00:01:01.013Z,21.45
2018-03-27T00:03:36.112Z,21.05
2018-03-27T00:06:08.563Z,20.65
2018-03-27T00:08:40.682Z,20.50
2018-03-27T00:11:13.472Z,20.23
2018-03-27T00:13:45.631Z,19.25
2018-03-27T00:16:17.591Z,20.45
2018-03-27T00:18:50.012Z,20.05
2018-03-27T00:21:22.682Z,20.08
2018-03-27T00:23:54.752Z,21.55
2018-03-27T00:26:26.771Z,20.17
2018-03-27T00:29:13.893Z,20.77
2018-03-27T00:31:57.732Z,20.30
2018-03-27T00:34:45.117Z,19.50
2018-03-27T00:37:32.072Z,20.65
2018-03-27T00:40:13.804Z,20.15
2018-03-27T00:43:02.612Z,20.33
2018-03-27T00:45:40.922Z,20.62
2018-03-27T00:48:13.512Z,18.67
2018-03-27T00:50:45.563Z,19.65
2018-03-27T00:53:17.951Z,20.05
2018-03-27T00:55:50.314Z,20.40
2018-03-27T00:58:22.612Z,20.45
2018-03-27T01:00:54.242Z,18.73
2018-03-27T01:03:33.272Z,20.35
2018-03-27T01:06:05.523Z,19.70
2018-03-27T01:08:37.182Z,21.05
2018-03-27T01:11:09.551Z,19.90
2018-03-27T01:13:42.383Z,19.02
2018-03-27T01:16:16.792Z,18.90
2018-03-27T01:18:49.783Z,19.42
2018-03-27T01:21:20.412Z,19.15
2018-03-27T01:23:50.495Z,20.52
2018-03-27T01:26:22.451Z,19.50
2018-03-27T01:28:53.597Z,18.10
2018-03-27T01:31:26.013Z,18.92
2018-03-27T01:33:57.211Z,19.15
2018-03-27T01:36:34.300Z,18.80
2018-03-27T01:39:05.271Z,19.05
2018-03-27T01:41:36.922Z,19.05
2018-03-27T01:44:10.802Z,17.73
2018-03-27T01:46:46.233Z,19.10
2018-03-27T01:49:21.782Z,20.73
2018-03-27T01:51:54.003Z,18.30
2018-03-27T01:54:25.091Z,19.27
2018-03-27T01:56:57.672Z,19.37
2018-03-27T01:59:29.843Z,18.80
2018-03-27T02:02:00.772Z,19.92
2018-03-27T02:04:32.123Z,18.90
2018-03-27T02:07:04.083Z,20.23
2018-03-27T02:09:37.592Z,18.15
2018-03-27T02:12:15.723Z,19.27
2018-03-27T02:14:53.791Z,20.17
2018-03-27T02:17:31.071Z,20.10
2018-03-27T02:20:08.142Z,19.17
2018-03-27T02:23:00.143Z,19.55
2018-03-27T02:25:34.102Z,20.60
2018-03-27T02:28:07.912Z,20.25
2018-03-27T02:30:39.322Z,19.23
2018-03-27T02:33:12.342Z,19.37
2018-03-27T02:35:44.099Z,20.55
2018-03-27T02:38:16.303Z,20.27
2018-03-27T02:40:48.422Z,20.42
2018-03-27T02:43:21.525Z,19.25
2018-03-27T02:45:55.626Z,19.25
2018-03-27T02:48:37.223Z,19.95
2018-03-27T02:51:09.088Z,20.00
2018-03-27T02:53:45.032Z,19.83
2018-03-27T02:56:21.711Z,19.17
2018-03-27T02:58:53.705Z,20.75
2018-03-27T03:01:25.982Z,19.90
2018-03-27T03:03:57.945Z,21.73
2018-03-27T03:06:30.783Z,21.95
2018-03-27T03:09:02.743Z,22.37
2018-03-27T03:11:37.102Z,23.15
2018-03-27T03:14:13.123Z,22.45
2018-03-27T03:16:44.092Z,23.35
2018-03-27T03:19:16.462Z,22.25
2018-03-27T03:21:50.882Z,23.17
2018-03-27T03:24:23.843Z,23.05
2018-03-27T03:26:58.362Z,25.40
2018-03-27T03:29:30.112Z,23.98
2018-03-27T03:32:03.757Z,24.60
2018-03-27T03:34:41.145Z,26.00
2018-03-27T03:37:14.732Z,25.10
2018-03-27T03:39:46.573Z,25.65
2018-03-27T03:42:19.223Z,25.80
2018-03-27T03:44:58.602Z,25.08
2018-03-27T03:47:33.612Z,26.00
2018-03-27T03:50:05.382Z,26.20
2018-03-27T03:52:37.532Z,26.25
2018-03-27T03:55:09.855Z,26.45
2018-03-27T03:57:41.460Z,25.08
2018-03-27T04:00:13.023Z,25.05
2018-03-27T04:02:45.271Z,24.65
2018-03-27T04:05:17.863Z,23.95
2018-03-27T04:07:54.192Z,26.23
2018-03-27T04:10:28.342Z,24.67
2018-03-27T04:13:00.642Z,27.45
2018-03-27T04:15:31.631Z,32.70
2018-03-27T04:18:04.011Z,27.48
2018-03-27T04:20:37.091Z,30.50
2018-03-27T04:23:10.150Z,28.02
2018-03-27T04:25:42.604Z,28.87
2018-03-27T04:28:15.862Z,28.02
2018-03-27T04:30:48.183Z,27.55
2018-03-27T04:33:23.777Z,30.62
2018-03-27T04:35:54.712Z,26.35
2018-03-27T04:38:26.252Z,27.62
2018-03-27T04:40:57.511Z,26.30
2018-03-27T04:43:30.202Z,26.62
2018-03-27T04:46:01.152Z,23.52
2018-03-27T04:48:32.711Z,23.55
2018-03-27T04:51:08.742Z,23.62
2018-03-27T04:53:44.902Z,26.10
2018-03-27T04:56:17.270Z,22.80
2018-03-27T04:58:49.471Z,20.95
2018-03-27T05:01:20.612Z,21.75
2018-03-27T05:03:52.432Z,27.20
2018-03-27T05:06:24.706Z,26.70
2018-03-27T05:08:57.483Z,24.40
2018-03-27T05:11:29.352Z,24.85
2018-03-27T05:14:00.212Z,25.70
2018-03-27T05:16:32.662Z,25.58
2018-03-27T05:19:05.336Z,24.30
2018-03-27T05:21:37.391Z,20.45
2018-03-27T05:24:08.191Z,19.77
2018-03-27T05:26:39.615Z,23.20
2018-03-27T05:29:12.871Z,22.30
2018-03-27T05:31:44.947Z,21.23
2018-03-27T05:34:18.642Z,20.65
2018-03-27T05:36:53.062Z,19.05
2018-03-27T05:39:24.411Z,19.15
2018-03-27T05:41:55.842Z,18.75
2018-03-27T05:44:34.782Z,17.70
2018-03-27T05:47:07.182Z,18.30
2018-03-27T05:49:41.673Z,18.62
2018-03-27T05:52:12.822Z,16.27
2018-03-27T05:54:46.431Z,16.87
2018-03-27T05:57:17.972Z,16.20
2018-03-27T05:59:50.207Z,14.75
2018-03-27T06:02:22.310Z,17.52
2018-03-27T06:04:54.052Z,16.92
2018-03-27T06:07:28.682Z,17.85
2018-03-27T06:10:00.442Z,18.45
2018-03-27T06:12:33.362Z,19.08
2018-03-27T06:15:04.882Z,17.80
2018-03-27T06:17:36.431Z,18.55
2018-03-27T06:20:10.542Z,19.73
2018-03-27T06:22:45.922Z,18.35
2018-03-27T06:25:23.682Z,15.60
2018-03-27T06:27:56.573Z,16.35
2018-03-27T06:30:28.251Z,16.37
2018-03-27T06:33:01.203Z,16.98
2018-03-27T06:35:33.102Z,18.67
2018-03-27T06:38:05.742Z,17.48
2018-03-27T06:40:37.602Z,18.30
2018-03-27T06:43:08.183Z,17.23
2018-03-27T06:45:43.222Z,19.02
2018-03-27T06:48:14.622Z,16.30
2018-03-27T06:50:46.472Z,14.93
2018-03-27T06:53:24.222Z,15.95
2018-03-27T06:55:57.563Z,16.90
2018-03-27T06:58:34.451Z,15.38
2018-03-27T07:01:06.502Z,19.65
2018-03-27T07:03:37.451Z,16.10
2018-03-27T07:06:09.014Z,16.12
2018-03-27T07:08:46.262Z,15.15
2018-03-27T07:11:20.812Z,15.85
2018-03-27T07:13:50.736Z,18.35
2018-03-27T07:16:23.138Z,17.27
2018-03-27T07:18:57.924Z,16.37
2018-03-27T07:21:29.362Z,16.50
2018-03-27T07:24:02.192Z,26.90
2018-03-27T07:26:36.236Z,14.18
2018-03-27T07:29:08.522Z,13.88
2018-03-27T07:31:40.426Z,12.68
2018-03-27T07:34:11.742Z,15.95
2018-03-27T07:36:44.103Z,17.10
2018-03-27T07:39:15.223Z,13.73
2018-03-27T07:41:46.932Z,14.75
2018-03-27T07:44:19.684Z,15.63
2018-03-27T07:46:51.034Z,17.45
2018-03-27T07:49:23.341Z,16.42
2018-03-27T07:51:56.232Z,15.20
2018-03-27T07:54:27.742Z,14.45
2018-03-27T07:57:01.274Z,18.90
2018-03-27T07:59:34.161Z,15.57
2018-03-27T08:02:07.652Z,15.95
2018-03-27T08:04:38.653Z,15.23
2018-03-27T08:07:10.552Z,15.20
2018-03-27T08:09:42.781Z,16.20
2018-03-27T08:12:13.512Z,16.33
2018-03-27T08:14:49.063Z,16.12
2018-03-27T08:17:21.341Z,14.60
2018-03-27T08:19:54.021Z,15.68
2018-03-27T08:22:24.753Z,16.00
2018-03-27T08:24:56.954Z,13.00
2018-03-27T08:27:29.268Z,14.65
2018-03-27T08:30:04.761Z,15.15
2018-03-27T08:32:36.270Z,13.95
2018-03-27T08:35:08.653Z,14.70
2018-03-27T08:37:40.951Z,14.30
2018-03-27T08:40:12.873Z,13.18
2018-03-27T08:42:43.952Z,12.95
2018-03-27T08:45:19.672Z,13.60
2018-03-27T08:47:53.623Z,12.18
2018-03-27T08:50:25.853Z,14.80
2018-03-27T08:52:58.242Z,12.40
2018-03-27T08:55:30.223Z,10.65
2018-03-27T08:58:01.441Z,11.15
2018-03-27T09:00:33.438Z,9.52
2018-03-27T09:03:04.432Z,10.70
2018-03-27T09:05:44.204Z,11.63
2018-03-27T09:08:16.541Z,11.90
2018-03-27T09:10:50.213Z,11.85
2018-03-27T09:13:23.222Z,10.68
2018-03-27T09:15:56.742Z,12.23
2018-03-27T09:18:28.240Z,10.35
2018-03-27T09:21:00.751Z,10.70
2018-03-27T09:23:33.371Z,13.02
2018-03-27T09:26:08.771Z,10.88
2018-03-27T09:28:39.714Z,10.20
2018-03-27T09:31:13.921Z,10.25
2018-03-27T09:33:46.093Z,11.10
2018-03-27T09:36:18.361Z,10.73
2018-03-27T09:38:50.126Z,9.80
2018-03-27T09:41:22.713Z,9.95
2018-03-27T09:43:54.181Z,15.80
2018-03-27T09:46:26.262Z,9.82
2018-03-27T09:48:57.772Z,9.48
2018-03-27T09:51:32.033Z,11.43
2018-03-27T09:54:03.531Z,12.88
2018-03-27T09:56:34.692Z,12.73
2018-03-27T09:59:09.202Z,12.65
2018-03-27T10:01:41.782Z,17.90
2018-03-27T10:04:12.813Z,14.75
2018-03-27T10:06:44.063Z,13.62
2018-03-27T10:09:16.064Z,16.50
2018-03-27T10:11:46.761Z,17.20
2018-03-27T10:14:18.413Z,16.52
2018-03-27T10:16:54.661Z,18.25
2018-03-27T10:19:27.381Z,17.23
2018-03-27T10:21:59.713Z,17.12
2018-03-27T10:24:35.991Z,16.50
2018-03-27T10:27:08.350Z,16.95
2018-03-27T10:29:44.119Z,16.20
2018-03-27T10:32:18.721Z,16.48
2018-03-27T10:34:53.783Z,16.75
2018-03-27T10:37:26.991Z,16.90
2018-03-27T10:39:57.523Z,16.25
2018-03-27T10:42:32.531Z,16.95
2018-03-27T10:45:04.112Z,17.17
2018-03-27T10:47:35.281Z,16.92
2018-03-27T10:50:10.391Z,17.05
2018-03-27T10:52:48.153Z,17.27
2018-03-27T10:55:19.595Z,15.38
2018-03-27T10:57:51.774Z,16.08
2018-03-27T11:00:24.232Z,14.75
2018-03-27T11:02:57.636Z,14.90
2018-03-27T11:05:29.123Z,17.15
2018-03-27T11:08:05.655Z,18.77
2018-03-27T11:10:37.953Z,14.50
2018-03-27T11:13:09.772Z,16.17
2018-03-27T11:15:49.290Z,16.70
2018-03-27T11:18:22.412Z,15.55
2018-03-27T11:20:55.081Z,13.95
2018-03-27T11:23:29.601Z,15.02
2018-03-27T11:26:01.061Z,13.95
2018-03-27T11:28:35.231Z,14.82
2018-03-27T11:31:08.902Z,13.90
2018-03-27T11:33:45.444Z,18.23
2018-03-27T11:36:16.801Z,14.80
2018-03-27T11:38:49.867Z,14.68
2018-03-27T11:41:21.893Z,15.75
2018-03-27T11:43:53.334Z,16.45
2018-03-27T11:46:24.641Z,14.68
2018-03-27T11:48:57.032Z,14.30
2018-03-27T11:51:29.221Z,13.10
2018-03-27T11:54:02.868Z,12.70
2018-03-27T11:56:36.792Z,12.88
2018-03-27T11:59:09.252Z,14.98
2018-03-27T12:01:40.822Z,12.73
2018-03-27T12:04:13.803Z,14.65
2018-03-27T12:06:50.054Z,14.27
2018-03-27T12:09:23.482Z,12.05
2018-03-27T12:11:55.272Z,15.63
2018-03-27T12:14:26.322Z,17.33
2018-03-27T12:16:58.561Z,14.25
2018-03-27T12:19:30.796Z,14.35
2018-03-27T12:22:03.162Z,14.25
2018-03-27T12:24:35.027Z,12.37
2018-03-27T12:27:06.381Z,12.80
2018-03-27T12:29:38.024Z,11.88
2018-03-27T12:32:11.353Z,10.98
2018-03-27T12:34:42.771Z,11.38
2018-03-27T12:37:16.055Z,11.90
2018-03-27T12:39:47.732Z,11.90
2018-03-27T12:42:19.912Z,11.98
2018-03-27T12:44:53.124Z,11.20
2018-03-27T12:47:24.572Z,11.63
2018-03-27T12:49:58.241Z,10.90
2018-03-27T12:52:31.567Z,10.50
2018-03-27T12:55:02.871Z,11.07
2018-03-27T12:57:34.153Z,10.18
2018-03-27T13:00:06.182Z,11.55
2018-03-27T13:02:38.131Z,8.35
2018-03-27T13:05:09.732Z,10.35
2018-03-27T13:07:41.662Z,13.90
2018-03-27T13:10:13.723Z,10.20
2018-03-27T13:12:48.313Z,10.60
2018-03-27T13:15:19.833Z,10.50
2018-03-27T13:17:50.831Z,11.95
2018-03-27T13:20:23.619Z,11.82
2018-03-27T13:22:55.371Z,10.88
2018-03-27T13:25:27.030Z,11.52
2018-03-27T13:27:58.171Z,10.75
2018-03-27T13:30:31.554Z,11.63
2018-03-27T13:33:09.541Z,11.23
2018-03-27T13:35:41.131Z,10.70
2018-03-27T13:38:14.512Z,11.90
2018-03-27T13:40:50.172Z,10.02
2018-03-27T13:43:21.141Z,9.83
2018-03-27T13:45:54.391Z,11.00
2018-03-27T13:48:25.961Z,10.40
2018-03-27T13:50:57.603Z,12.27
2018-03-27T13:53:29.743Z,10.93
2018-03-27T13:56:01.564Z,11.27
2018-03-27T13:58:34.005Z,13.90
2018-03-27T14:01:08.921Z,12.03
2018-03-27T14:03:41.702Z,10.80
2018-03-27T14:06:14.191Z,10.77
2018-03-27T14:08:45.981Z,11.70
2018-03-27T14:11:19.861Z,9.90
2018-03-27T14:13:52.655Z,11.17
2018-03-27T14:16:24.630Z,13.23
2018-03-27T14:18:56.597Z,10.85
2018-03-27T14:21:27.591Z,11.02
2018-03-27T14:23:58.732Z,10.77
2018-03-27T14:26:30.393Z,10.52
2018-03-27T14:29:01.644Z,11.00
2018-03-27T14:31:36.781Z,12.37
2018-03-27T14:34:09.073Z,11.20
2018-03-27T14:36:40.263Z,11.10
2018-03-27T14:39:11.843Z,11.00
2018-03-27T14:41:43.403Z,14.43
2018-03-27T14:44:17.914Z,11.52
2018-03-27T14:46:49.745Z,10.65
2018-03-27T14:49:21.122Z,10.68
2018-03-27T14:51:53.604Z,11.27
2018-03-27T14:54:25.574Z,9.60
2018-03-27T14:56:57.717Z,10.73
2018-03-27T14:59:30.627Z,10.68
2018-03-27T15:02:12.262Z,9.85
2018-03-27T15:04:43.037Z,10.23
2018-03-27T15:07:14.992Z,10.50
2018-03-27T15:09:46.854Z,11.15
2018-03-27T15:12:18.518Z,9.90
2018-03-27T15:14:53.264Z,9.40
2018-03-27T15:17:25.748Z,9.13
2018-03-27T15:19:57.614Z,14.87
2018-03-27T15:22:28.503Z,10.05
2018-03-27T15:24:59.304Z,10.32
2018-03-27T15:27:31.332Z,10.30
2018-03-27T15:30:05.303Z,11.07
2018-03-27T15:32:37.413Z,11.20
2018-03-27T15:35:08.903Z,9.25
2018-03-27T15:37:40.322Z,9.25
2018-03-27T15:40:15.212Z,9.30
2018-03-27T15:42:47.174Z,10.50
2018-03-27T15:45:21.276Z,10.13
2018-03-27T15:47:53.343Z,9.75
2018-03-27T15:50:25.141Z,9.80
2018-03-27T15:52:56.053Z,8.65
2018-03-27T15:55:29.953Z,10.90
2018-03-27T15:58:02.154Z,11.43
2018-03-27T16:00:33.302Z,9.85
2018-03-27T16:03:08.484Z,9.38
2018-03-27T16:05:42.816Z,9.05
2018-03-27T16:08:15.736Z,9.88
2018-03-27T16:10:52.562Z,10.80
2018-03-27T16:13:26.576Z,9.65
2018-03-27T16:15:59.503Z,10.32
2018-03-27T16:18:31.773Z,12.02
2018-03-27T16:21:05.754Z,10.68
2018-03-27T16:23:40.482Z,9.13
2018-03-27T16:26:13.773Z,8.60
2018-03-27T16:28:49.834Z,9.00
2018-03-27T16:31:24.153Z,14.75
2018-03-27T16:33:56.002Z,16.17
2018-03-27T16:36:27.664Z,10.88
2018-03-27T16:38:59.452Z,9.95
2018-03-27T16:41:31.073Z,9.20
2018-03-27T16:44:02.322Z,9.07
2018-03-27T16:46:35.822Z,9.35
2018-03-27T16:49:07.993Z,8.25
2018-03-27T16:51:39.273Z,9.50
2018-03-27T16:54:11.192Z,8.70
2018-03-27T16:56:43.564Z,8.68
2018-03-27T16:59:15.014Z,8.50
2018-03-27T17:01:46.900Z,10.55
2018-03-27T17:04:22.424Z,9.70
2018-03-27T17:06:57.893Z,9.48
2018-03-27T17:09:32.763Z,8.55
2018-03-27T17:12:10.173Z,10.45
2018-03-27T17:14:41.102Z,8.55
2018-03-27T17:17:12.662Z,10.20
2018-03-27T17:19:44.102Z,10.13
2018-03-27T17:22:18.542Z,9.35
2018-03-27T17:24:52.962Z,16.85
2018-03-27T17:27:24.303Z,11.68
2018-03-27T17:29:55.992Z,8.93
2018-03-27T17:32:27.403Z,11.70
2018-03-27T17:34:58.853Z,8.52
2018-03-27T17:37:34.824Z,10.32
2018-03-27T17:40:08.304Z,10.98
2018-03-27T17:42:39.244Z,11.43
2018-03-27T17:45:11.515Z,12.23
2018-03-27T17:47:45.523Z,10.48
2018-03-27T17:50:19.897Z,9.40
2018-03-27T17:52:52.123Z,10.20
2018-03-27T17:55:23.974Z,10.07
2018-03-27T17:57:54.643Z,10.45
2018-03-27T18:00:26.466Z,9.93
2018-03-27T18:02:58.532Z,10.10
2018-03-27T18:05:29.814Z,9.85
2018-03-27T18:08:02.152Z,9.80
2018-03-27T18:10:33.803Z,9.80
2018-03-27T18:13:05.998Z,10.60
2018-03-27T18:15:37.713Z,11.05
2018-03-27T18:18:09.503Z,11.32
2018-03-27T18:20:41.704Z,12.73
2018-03-27T18:23:15.363Z,11.60
2018-03-27T18:25:47.634Z,17.08
2018-03-27T18:28:21.774Z,10.90
2018-03-27T18:30:56.916Z,12.07
2018-03-27T18:33:28.943Z,11.98
2018-03-27T18:36:00.482Z,11.55
2018-03-27T18:38:32.665Z,12.02
2018-03-27T18:41:04.513Z,11.55
2018-03-27T18:43:36.883Z,11.35
2018-03-27T18:46:10.283Z,10.18
2018-03-27T18:48:41.784Z,9.52
2018-03-27T18:51:13.494Z,10.90
2018-03-27T18:53:45.543Z,10.30
2018-03-27T18:56:18.943Z,11.20
2018-03-27T18:58:50.553Z,11.65
2018-03-27T19:01:23.687Z,11.90
2018-03-27T19:03:54.524Z,12.73
2018-03-27T19:06:25.912Z,13.02
2018-03-27T19:09:00.207Z,13.82
2018-03-27T19:11:31.873Z,12.00
2018-03-27T19:14:04.563Z,12.77
2018-03-27T19:16:39.664Z,13.43
2018-03-27T19:19:10.813Z,12.82
2018-03-27T19:21:43.334Z,11.55
2018-03-27T19:24:17.704Z,14.20
2018-03-27T19:26:50.794Z,12.50
2018-03-27T19:29:22.544Z,12.48
2018-03-27T19:31:57.673Z,13.32
2018-03-27T19:34:29.744Z,13.18
2018-03-27T19:37:02.779Z,11.77
2018-03-27T19:39:34.744Z,11.02
2018-03-27T19:42:06.783Z,10.48
2018-03-27T19:44:39.432Z,11.55
2018-03-27T19:47:12.264Z,10.75
2018-03-27T19:49:43.754Z,10.77
2018-03-27T19:52:13.814Z,12.10
2018-03-27T19:54:47.644Z,11.77
2018-03-27T19:57:19.332Z,10.95
2018-03-27T19:59:52.742Z,12.52
2018-03-27T20:02:28.003Z,11.00
2018-03-27T20:05:00.074Z,10.77
2018-03-27T20:07:32.623Z,11.12
2018-03-27T20:10:06.432Z,10.20
2018-03-27T20:12:38.742Z,10.65
2018-03-27T20:15:11.104Z,11.88
2018-03-27T20:17:43.482Z,11.25
2018-03-27T20:20:15.383Z,11.57
2018-03-27T20:22:48.904Z,11.10
2018-03-27T20:25:20.483Z,10.73
2018-03-27T20:27:53.754Z,9.05
2018-03-27T20:30:25.417Z,9.40
2018-03-27T20:32:58.694Z,10.63
2018-03-27T20:35:31.303Z,11.90
2018-03-27T20:38:04.465Z,10.32
2018-03-27T20:40:35.643Z,11.25
2018-03-27T20:43:07.054Z,10.38
2018-03-27T20:45:38.433Z,11.88
2018-03-27T20:48:09.473Z,10.13
2018-03-27T20:50:41.393Z,9.85
2018-03-27T20:53:13.677Z,10.07
2018-03-27T20:55:47.983Z,10.23
2018-03-27T20:58:21.202Z,10.73
2018-03-27T21:00:52.393Z,11.10
2018-03-27T21:03:23.863Z,9.63
2018-03-27T21:05:55.834Z,10.57
2018-03-27T21:08:30.553Z,11.20
2018-03-27T21:11:03.343Z,11.25
2018-03-27T21:13:37.053Z,10.15
2018-03-27T21:16:07.584Z,9.98
2018-03-27T21:18:39.133Z,10.63
2018-03-27T21:21:11.047Z,11.68
2018-03-27T21:23:44.314Z,10.63
2018-03-27T21:26:20.143Z,11.57
2018-03-27T21:28:56.293Z,10.40
2018-03-27T21:31:28.552Z,11.05
2018-03-27T21:33:59.914Z,10.88
2018-03-27T21:36:32.513Z,10.75
2018-03-27T21:39:04.953Z,11.35
2018-03-27T21:41:37.432Z,9.55
2018-03-27T21:44:17.784Z,10.13
2018-03-27T21:46:50.914Z,9.40
2018-03-27T21:49:28.814Z,9.63
2018-03-27T21:52:00.660Z,10.15
2018-03-27T21:54:32.822Z,9.45
2018-03-27T21:57:09.073Z,9.93
2018-03-27T21:59:44.613Z,10.20
2018-03-27T22:02:19.354Z,9.70
2018-03-27T22:04:51.393Z,9.98
2018-03-27T22:07:25.513Z,9.07
2018-03-27T22:09:57.723Z,9.75
2018-03-27T22:12:33.032Z,9.65
2018-03-27T22:15:06.664Z,10.50
2018-03-27T22:20:31.758Z,9.23
2018-03-27T22:23:08.322Z,10.43
2018-03-27T22:25:39.965Z,9.45
2018-03-27T22:28:14.794Z,9.25
2018-03-27T22:30:46.793Z,9.98
2018-03-27T22:33:20.614Z,9.20
2018-03-27T22:35:54.103Z,8.75
2018-03-27T22:38:25.503Z,8.10
2018-03-27T22:40:58.293Z,8.20
2018-03-27T22:43:29.394Z,8.85
2018-03-27T22:46:02.043Z,9.35
2018-03-27T22:48:33.563Z,8.38
2018-03-27T22:51:07.356Z,8.43
2018-03-27T22:53:38.704Z,8.55
2018-03-27T22:56:11.343Z,9.35
2018-03-27T22:58:43.563Z,8.82
2018-03-27T23:01:17.994Z,7.80
2018-03-27T23:03:51.272Z,8.75
2018-03-27T23:06:22.442Z,8.90
2018-03-27T23:11:47.949Z,8.70
2018-03-27T23:14:19.909Z,8.80
2018-03-27T23:16:52.890Z,9.35
2018-03-27T23:19:29.049Z,7.80
2018-03-27T23:22:06.349Z,8.43
2018-03-27T23:24:36.570Z,8.40
2018-03-27T23:27:08.529Z,9.45
2018-03-27T23:29:39.869Z,8.00
2018-03-27T23:32:12.350Z,8.40
2018-03-27T23:34:45.167Z,9.00
2018-03-27T23:37:16.369Z,8.70
2018-03-27T23:39:48.330Z,8.65
2018-03-27T23:42:19.789Z,7.55
2018-03-27T23:44:51.389Z,7.20
2018-03-27T23:47:23.509Z,7.18
2018-03-27T23:49:55.169Z,6.60
2018-03-27T23:52:27.409Z,6.65
2018-03-27T23:54:58.070Z,7.55
2018-03-27T23:57:32.370Z,7.60
